Startpagina
METAR-TAF:

METAR-TAF

Vliegvelden :

Vliegbasis Chièvres

Chièvres, België

breedte: 50-34N, lengte: 003-50E, hoogte: 60 m

Actueel weer

Dit bericht is 24 minuten geleden gemaakt, om 18:25 UTC
Wind 10 kt uit het oostnoordoosten
Temperatuur 20°C
Vochtigheid 32%
Druk 1020 hPa
Zicht 10 km of meer

METAR: EBCV 311825Z AUTO 06010KT 9999 NCD 20/03 Q1020 BLU

Tijdstip: 20:49 (18:49 UTC)

Verwachting

Dit bericht is 2 uur en het 45 minuten geleden gemaakt, om 16:04 UTC
Verwachting geldig van 31 om 19 UTC tot 01 om 07 UTC
Wind 8 kt uit het oostnoordoosten
Zicht 10 km of meer
Weinig wolken op 6000 ft

TAF: EBCV 311604Z 3119/0107 06008KT 9999 FEW060

Waarnemingen en weersverwachtingen van meer dan 4000 vliegvelden (METAR en TAF).

De beschikbare stations zijn de gele en rode punten op de kaart.

Ga met uw muis naar het station om de naam te zien.

Klik dan om waarnemingen en weersverwachtingen te zien.

kaart wijzigen: klik op de groene knoppen met een zwart kruis om in te zoomen, op de groene knop met een streepje om uit te zoomen of op de groene pijlen voor aangrenzende kaarten.


METAR-TAF: